Time;durP1;ratioP1;P1;durP2;ratioP2;P2;SDS_P1;SDS_P2;PMS_P1;PMS_P2;Temp;Humidity;BMP_temperature;BMP_pressure;BME280_temperature;BME280_humidity;BME280_pressure;Samples;Min_cycle;Max_cycle;Signal;HPM_P1;HPM_P2
2022/09/27 00:02:40;;;;;;;;;;;;;;;9.31;89.62;98215.16;10237302;29;20071;-76
2022/09/27 00:07:45;;;;;;;14.50;11.45;;;;;;;9.11;90.50;98212.00;10238509;29;20001;-76
2022/09/27 00:12:48;;;;;;;16.73;13.15;;;;;;;9.31;90.01;98199.94;10234536;28;20115;-76
2022/09/27 00:17:51;;;;;;;17.20;12.50;;;;;;;9.18;90.82;98207.63;10233390;29;20142;-76
2022/09/27 00:22:56;;;;;;;16.95;9.88;;;;;;;9.12;90.99;98211.81;10223825;28;20098;-77
2022/09/27 00:27:58;;;;;;;14.82;11.20;;;;;;;9.21;91.11;98204.63;10234219;29;20150;-76
2022/09/27 00:33:01;;;;;;;15.07;11.25;;;;;;;9.23;91.00;98203.44;10231364;29;20047;-76
2022/09/27 00:38:06;;;;;;;14.60;11.23;;;;;;;9.30;90.33;98198.25;10225857;29;20058;-76
2022/09/27 00:43:16;;;;;;;12.23;10.73;;;;;;;9.46;89.37;98205.41;10241921;28;20086;-76
2022/09/27 00:48:24;;;;;;;13.32;10.95;;;;;;;9.43;89.67;98206.59;10233771;29;20098;-76
2022/09/27 00:53:32;;;;;;;14.40;11.98;;;;;;;9.43;91.11;98208.44;10219708;29;20379;-76
2022/09/27 00:58:38;;;;;;;16.92;11.82;;;;;;;9.43;90.33;98206.59;10222632;29;20665;-75
2022/09/27 01:03:49;;;;;;;18.45;12.27;;;;;;;9.52;89.78;98199.41;10230550;29;20071;-75
2022/09/27 01:08:53;;;;;;;12.75;11.07;;;;;;;9.52;89.49;98191.38;10242435;29;20094;-76
2022/09/27 01:14:08;;;;;;;17.27;11.07;;;;;;;9.49;89.88;98197.06;10246805;28;20114;-75
2022/09/27 01:19:26;;;;;;;14.52;10.23;;;;;;;9.55;89.67;98195.53;10243408;29;20106;-75
2022/09/27 01:24:57;;;;;;;13.23;10.23;;;;;;;9.50;89.65;98196.88;10236784;28;20044;-75
2022/09/27 01:30:16;;;;;;;15.25;9.65;;;;;;;9.28;91.47;98197.59;10229860;29;20047;-75
2022/09/27 01:35:34;;;;;;;14.48;9.60;;;;;;;9.25;91.22;98197.94;10234445;28;20422;-76
2022/09/27 01:40:43;;;;;;;13.32;8.18;;;;;;;9.09;92.22;98189.91;10225709;29;20071;-76
2022/09/27 01:46:15;;;;;;;12.18;7.80;;;;;;;9.32;91.19;98190.88;10244281;29;20090;-76
2022/09/27 01:51:52;;;;;;;17.50;9.18;;;;;;;9.13;91.61;98197.41;10217808;29;20058;-75
2022/09/27 01:56:59;;;;;;;23.42;10.00;;;;;;;9.16;91.61;98194.44;10233888;29;20054;-75
2022/09/27 02:02:11;;;;;;;16.80;9.63;;;;;;;9.13;91.77;98191.22;10248676;28;20079;-75
2022/09/27 02:07:37;;;;;;;20.63;11.40;;;;;;;9.25;91.72;98188.06;10230599;29;20040;-75
2022/09/27 02:12:50;;;;;;;25.10;11.90;;;;;;;9.25;91.81;98200.63;10209542;29;20130;-75
2022/09/27 02:17:59;;;;;;;23.10;9.00;;;;;;;9.09;92.38;98197.94;10227138;29;20137;-76
2022/09/27 02:23:41;;;;;;;20.30;10.05;;;;;;;8.99;93.37;98206.97;10236456;29;20084;-75
2022/09/27 02:29:39;;;;;;;16.75;7.80;;;;;;;8.84;94.06;98212.16;10237138;29;20079;-76
2022/09/27 02:34:46;;;;;;;20.33;9.45;;;;;;;8.88;93.29;98212.66;10215652;29;20051;-76
2022/09/27 02:39:50;;;;;;;19.77;7.85;;;;;;;8.79;93.39;98213.66;10230903;29;20150;-76
2022/09/27 02:44:53;;;;;;;16.73;7.82;;;;;;;8.68;93.37;98222.00;10231296;28;20159;-76
2022/09/27 02:50:28;;;;;;;16.98;6.97;;;;;;;8.89;92.87;98219.69;10244566;29;20480;-76
2022/09/27 02:55:59;;;;;;;12.50;5.57;;;;;;;8.67;92.60;98217.66;10232978;29;20054;-76
2022/09/27 03:01:29;;;;;;;12.85;5.57;;;;;;;8.65;93.68;98222.34;10243307;28;20055;-76
2022/09/27 03:06:46;;;;;;;11.93;5.18;;;;;;;8.58;94.02;98223.00;10240746;29;20449;-76
2022/09/27 03:11:49;;;;;;;10.30;5.57;;;;;;;8.87;92.29;98224.38;10226105;28;20062;-76
2022/09/27 03:16:52;;;;;;;17.23;6.78;;;;;;;8.72;92.87;98232.22;10240710;29;20402;-76
2022/09/27 03:22:16;;;;;;;13.73;6.93;;;;;;;8.64;93.38;98223.31;10232127;29;20059;-76
2022/09/27 03:27:18;;;;;;;16.20;7.43;;;;;;;8.48;93.95;98234.84;10234914;29;20061;-76
2022/09/27 03:32:21;;;;;;;14.52;6.15;;;;;;;8.67;93.17;98234.56;10236450;28;20047;-76
2022/09/27 03:37:37;;;;;;;10.38;6.15;;;;;;;8.67;92.76;98242.59;10240541;29;20057;-76
2022/09/27 03:42:40;;;;;;;9.73;5.40;;;;;;;8.25;94.71;98230.03;10234082;28;20040;-76
2022/09/27 03:47:49;;;;;;;10.63;4.53;;;;;;;8.69;92.12;98242.41;10244040;29;20659;-75
2022/09/27 03:52:53;;;;;;;15.02;4.72;;;;;;;8.35;93.25;98237.94;10242832;29;20114;-76
2022/09/27 03:57:57;;;;;;;13.02;4.32;;;;;;;8.30;92.90;98242.94;10233302;29;20058;-77
2022/09/27 04:03:00;;;;;;;9.18;4.32;;;;;;;8.55;93.13;98247.38;10246219;28;20048;-77
2022/09/27 04:08:06;;;;;;;11.68;4.00;;;;;;;8.46;92.91;98251.06;10243752;29;20058;-77
2022/09/27 04:13:09;;;;;;;9.65;3.83;;;;;;;8.67;91.61;98249.78;10241625;28;20453;-77
2022/09/27 04:18:20;;;;;;;9.45;4.45;;;;;;;8.49;92.13;98248.03;10237840;29;20058;-76
2022/09/27 04:24:04;;;;;;;11.90;5.72;;;;;;;8.55;91.57;98258.09;10233172;28;20058;-76
2022/09/27 04:29:08;;;;;;;14.13;4.70;;;;;;;8.64;91.92;98253.63;10227439;29;20071;-76
2022/09/27 04:34:14;;;;;;;13.73;4.47;;;;;;;8.35;92.83;98254.81;10227443;29;20135;-76
2022/09/27 04:39:19;;;;;;;8.65;3.70;;;;;;;8.40;92.27;98257.03;10237985;29;20044;-76
2022/09/27 04:44:22;;;;;;;11.68;3.25;;;;;;;8.16;92.07;98263.94;10239066;28;20113;-77
2022/09/27 04:49:25;;;;;;;9.07;3.30;;;;;;;8.21;92.27;98263.47;10235893;29;20093;-76
2022/09/27 04:54:30;;;;;;;11.55;3.50;;;;;;;8.24;92.12;98262.31;10221637;28;20051;-76
2022/09/27 04:59:43;;;;;;;9.80;3.40;;;;;;;8.22;91.97;98273.16;10239714;29;20055;-76
2022/09/27 05:04:48;;;;;;;8.10;3.50;;;;;;;8.21;92.05;98265.31;10242997;28;20476;-76
2022/09/27 05:09:57;;;;;;;7.32;4.28;;;;;;;7.93;92.97;98285.06;10237167;28;20067;-76
2022/09/27 05:15:01;;;;;;;5.80;3.08;;;;;;;8.03;92.74;98298.31;10231934;29;20043;-76
2022/09/27 05:20:25;;;;;;;5.88;3.28;;;;;;;8.14;92.22;98302.53;10207870;29;20054;-76
2022/09/27 05:25:32;;;;;;;7.70;3.05;;;;;;;8.01;93.21;98313.69;10204508;28;20047;-76
2022/09/27 05:30:36;;;;;;;6.03;2.95;;;;;;;7.94;93.08;98312.63;10193202;28;20194;-76
2022/09/27 05:35:46;;;;;;;10.32;3.58;;;;;;;7.93;92.38;98318.97;10201178;28;20055;-76
2022/09/27 05:40:51;;;;;;;7.00;1.85;;;;;;;7.50;93.40;98326.03;10183162;28;20275;-76
2022/09/27 05:45:54;;;;;;;8.23;3.20;;;;;;;8.08;91.41;98336.09;10197869;28;20054;-76
2022/09/27 05:50:58;;;;;;;5.43;3.38;;;;;;;7.89;92.20;98337.16;10198865;28;20058;-76
2022/09/27 05:56:04;;;;;;;7.55;3.50;;;;;;;8.15;91.00;98345.19;10202108;28;20062;-76
2022/09/27 06:01:42;;;;;;;17.42;4.60;;;;;;;7.93;91.94;98351.06;10161610;28;20059;-76
2022/09/27 06:07:20;;;;;;;3.78;2.47;;;;;;;7.65;92.73;98348.53;10178554;29;21248;-76
2022/09/27 06:12:24;;;;;;;6.35;3.17;;;;;;;7.64;91.90;98348.66;10173507;29;20056;-76
2022/09/27 06:17:27;;;;;;;10.38;4.28;;;;;;;8.08;90.84;98359.34;10183864;28;20055;-76
2022/09/27 06:22:30;;;;;;;6.13;3.30;;;;;;;8.25;89.21;98362.94;10216369;28;20043;-76
2022/09/27 06:27:36;;;;;;;6.63;3.05;;;;;;;8.12;88.93;98355.38;10200640;28;20047;-76
2022/09/27 06:32:42;;;;;;;8.98;2.83;;;;;;;8.14;88.89;98367.56;10234663;28;20055;-76
2022/09/27 06:38:02;;;;;;;6.00;3.03;;;;;;;8.07;89.88;98368.38;10242702;29;20521;-76
2022/09/27 06:43:10;;;;;;;8.73;3.03;;;;;;;8.13;89.02;98379.25;10227225;28;20036;-77
2022/09/27 06:48:46;;;;;;;4.28;2.13;;;;;;;7.78;88.92;98384.69;10210066;29;20054;-76
2022/09/27 06:53:50;;;;;;;7.03;2.47;;;;;;;7.66;89.35;98392.13;10219375;29;20178;-76
2022/09/27 07:04:17;;;;;;;4.53;1.45;;;;;;;7.90;85.84;98391.47;10239580;28;20094;-76
2022/09/27 07:09:46;;;;;;;2.28;1.23;;;;;;;7.99;86.22;98414.59;10227852;29;20066;-76
2022/09/27 07:14:51;;;;;;;1.73;1.40;;;;;;;8.02;86.39;98414.28;10249251;28;20077;-77
2022/09/27 07:19:54;;;;;;;5.38;1.40;;;;;;;7.79;86.43;98421.09;10233595;29;20048;-77
2022/09/27 07:24:57;;;;;;;6.13;1.42;;;;;;;7.92;85.84;98433.06;10231998;28;20063;-77
2022/09/27 07:30:02;;;;;;;2.65;1.70;;;;;;;7.91;86.23;98442.09;10235138;29;20052;-77
2022/09/27 07:35:07;;;;;;;6.55;1.92;;;;;;;8.59;84.58;98441.44;10227271;29;20073;-77
2022/09/27 07:40:10;;;;;;;3.50;1.30;;;;;;;8.71;83.17;98455.38;10236659;29;20518;-77
2022/09/27 07:45:16;;;;;;;2.60;1.88;;;;;;;8.96;83.49;98464.34;10243769;28;20047;-78
2022/09/27 07:50:38;;;;;;;7.88;1.90;;;;;;;8.96;82.97;98450.97;10255650;29;20091;-78
2022/09/27 07:56:15;;;;;;;5.60;1.70;;;;;;;8.84;82.53;98460.28;10232605;29;20536;-78
2022/09/27 08:01:19;;;;;;;3.95;1.30;;;;;;;9.25;81.00;98463.13;10241992;29;20044;-77
2022/09/27 08:06:23;;;;;;;3.60;1.40;;;;;;;8.88;82.51;98482.22;10248703;29;20636;-77
2022/09/27 08:11:27;;;;;;;5.97;1.77;;;;;;;9.07;81.90;98479.28;10235451;29;20138;-78
2022/09/27 08:16:33;;;;;;;5.40;1.80;;;;;;;9.56;80.89;98486.66;10229869;29;20067;-77
2022/09/27 08:22:07;;;;;;;3.83;1.15;;;;;;;9.20;79.23;98487.72;10240622;29;20052;-77
2022/09/27 08:27:30;;;;;;;5.22;1.75;;;;;;;9.28;80.05;98494.94;10219877;29;20059;-77
2022/09/27 08:32:37;;;;;;;2.65;1.67;;;;;;;9.21;82.01;98493.91;10213319;29;20087;-77
2022/09/27 08:37:41;;;;;;;4.55;1.85;;;;;;;9.40;81.25;98508.88;10261543;28;20048;-77
2022/09/27 08:42:56;;;;;;;4.93;2.10;;;;;;;9.80;81.40;98507.31;10239515;28;20063;-77
2022/09/27 08:48:04;;;;;;;5.68;1.83;;;;;;;9.96;78.53;98510.06;10229601;29;20054;-78
2022/09/27 08:53:19;;;;;;;7.22;1.50;;;;;;;9.85;77.48;98508.50;10231458;28;20429;-78
2022/09/27 08:58:27;;;;;;;3.83;1.50;;;;;;;10.15;78.01;98514.28;10238327;29;20728;-77
2022/09/27 09:03:36;;;;;;;5.18;1.17;;;;;;;10.81;74.03;98512.38;10214277;29;20048;-78
2022/09/27 09:08:54;;;;;;;3.67;1.10;;;;;;;11.10;73.11;98518.97;10229479;29;20485;-78
2022/09/27 09:14:18;;;;;;;5.78;1.40;;;;;;;10.67;76.02;98524.63;10248462;29;20051;-78
2022/09/27 09:19:39;;;;;;;5.97;1.70;;;;;;;9.68;80.05;98518.38;10235676;29;20050;-78
2022/09/27 09:25:22;;;;;;;6.00;1.85;;;;;;;9.97;77.83;98518.94;10237004;28;20050;-77
2022/09/27 09:30:32;;;;;;;6.85;1.98;;;;;;;10.13;77.96;98516.28;10223238;29;20067;-77
2022/09/27 09:35:42;;;;;;;5.20;1.80;;;;;;;10.29;75.76;98528.88;10228606;29;20075;-78
2022/09/27 09:40:50;;;;;;;5.05;1.30;;;;;;;10.31;74.82;98505.34;10225724;29;20098;-78
2022/09/27 09:45:58;;;;;;;2.40;1.17;;;;;;;10.55;72.48;98513.41;10225575;29;20103;-78
2022/09/27 09:51:08;;;;;;;5.13;1.50;;;;;;;10.09;74.08;98522.97;10264441;29;20056;-78
2022/09/27 09:56:17;;;;;;;5.10;0.95;;;;;;;10.75;71.14;98505.84;10245939;28;20099;-78
2022/09/27 10:01:26;;;;;;;6.35;0.88;;;;;;;11.93;71.72;98495.06;10252425;29;20047;-78
2022/09/27 10:06:31;;;;;;;13.38;2.05;;;;;;;12.64;84.42;98491.28;10243459;29;20390;-79
2022/09/27 10:11:40;;;;;;;8.38;1.00;;;;;;;10.89;84.69;98484.63;10254114;29;20056;-79
2022/09/27 10:17:13;;;;;;;5.35;1.02;;;;;;;9.53;85.20;98511.13;10226238;29;20103;-79
2022/09/27 10:22:24;;;;;;;2.63;0.88;;;;;;;8.94;88.18;98513.69;10244376;28;20102;-79
2022/09/27 10:27:39;;;;;;;3.97;1.10;;;;;;;8.59;88.70;98500.31;10281326;29;20134;-80
2022/09/27 10:32:43;;;;;;;3.92;1.17;;;;;;;8.52;88.16;98517.97;10254178;28;20054;-79
2022/09/27 10:38:29;;;;;;;5.05;1.00;;;;;;;8.44;88.42;98519.72;10246519;29;20421;-79
2022/09/27 10:43:52;;;;;;;0.85;0.45;;;;;;;7.86;87.75;98529.09;10245445;29;20086;-80
2022/09/27 10:49:16;;;;;;;2.70;0.77;;;;;;;7.82;87.80;98533.91;10262647;29;20487;-79
2022/09/27 10:54:26;;;;;;;1.75;0.65;;;;;;;8.07;86.68;98548.34;10240622;29;20130;-80
2022/09/27 10:59:33;;;;;;;1.30;1.02;;;;;;;9.83;82.35;98531.13;10255075;29;20043;-79
2022/09/27 11:04:37;;;;;;;1.80;0.50;;;;;;;9.90;79.41;98527.66;10252169;28;20050;-79
2022/09/27 11:09:53;;;;;;;4.15;0.80;;;;;;;10.45;75.01;98531.53;10264167;29;20047;-78
2022/09/27 11:15:01;;;;;;;1.27;0.60;;;;;;;12.63;70.35;98522.78;10263115;29;20044;-80
2022/09/27 11:20:24;;;;;;;4.57;1.08;;;;;;;11.61;71.28;98517.63;10253171;29;20051;-80
2022/09/27 11:25:35;;;;;;;;;;;;;;;10.58;74.43;98525.63;10231866;29;20118;-79
2022/09/27 11:30:48;;;;;;;2.08;1.00;;;;;;;11.35;74.08;98517.06;10270336;28;19962;-79
2022/09/27 11:36:35;;;;;;;1.98;0.85;;;;;;;12.17;69.05;98512.88;10222107;29;20180;-79
2022/09/27 11:41:52;;;;;;;1.63;0.98;;;;;;;11.88;71.09;98507.38;10247116;29;20063;-79
2022/09/27 11:47:03;;;;;;;3.17;0.80;;;;;;;10.91;73.91;98518.34;10245461;29;20043;-79
2022/09/27 11:52:22;;;;;;;2.65;0.75;;;;;;;11.39;72.27;98507.66;10242148;29;20461;-78
2022/09/27 11:57:34;;;;;;;2.72;0.55;;;;;;;11.45;68.90;98485.44;10259398;29;20159;-79
2022/09/27 12:03:06;;;;;;;2.90;0.38;;;;;;;11.35;69.64;98509.00;10267018;28;20051;-79
2022/09/27 12:08:26;;;;;;;2.67;0.50;;;;;;;12.35;66.51;98501.00;10265793;28;20396;-79
2022/09/27 12:13:36;;;;;;;1.05;0.30;;;;;;;12.15;66.66;98512.22;10246449;28;20082;-79
2022/09/27 12:18:41;;;;;;;3.17;0.70;;;;;;;12.45;67.31;98501.59;10243309;28;20586;-79
2022/09/27 12:24:03;;;;;;;3.63;0.63;;;;;;;12.82;63.91;98534.91;10246174;28;20055;-77
2022/09/27 12:29:15;;;;;;;2.45;0.65;;;;;;;12.98;63.89;98526.66;10226778;29;20141;-79
2022/09/27 12:34:22;;;;;;;0.60;0.40;;;;;;;12.89;64.48;98502.66;10236215;29;20051;-79
2022/09/27 12:39:33;;;;;;;2.28;0.40;;;;;;;14.74;60.96;98509.31;10245442;29;20043;-79
2022/09/27 12:44:53;;;;;;;0.98;0.57;;;;;;;12.92;62.14;98510.41;10236992;29;20043;-79
2022/09/27 12:50:03;;;;;;;2.88;0.80;;;;;;;13.18;62.59;98499.13;10254564;29;20051;-79
2022/09/27 12:55:36;;;;;;;1.10;0.60;;;;;;;12.55;62.94;98512.09;10234230;28;20595;-80
2022/09/27 13:00:46;;;;;;;0.82;0.75;;;;;;;12.20;64.99;98527.00;10247034;29;20051;-79
2022/09/27 13:06:16;;;;;;;2.10;0.77;;;;;;;11.68;66.77;98521.28;10247258;28;20079;-80
2022/09/27 13:11:26;;;;;;;1.38;0.75;;;;;;;11.41;67.05;98506.47;10230168;29;20052;-79
2022/09/27 13:16:31;;;;;;;2.05;0.50;;;;;;;11.69;65.57;98522.13;10237468;29;20043;-79
2022/09/27 13:21:57;;;;;;;2.60;0.77;;;;;;;13.81;59.77;98513.84;10253034;28;20331;-79
2022/09/27 13:27:40;;;;;;;2.95;0.77;;;;;;;13.03;59.67;98518.00;10222345;29;20099;-79
2022/09/27 13:33:22;;;;;;;1.05;0.90;;;;;;;11.76;63.62;98516.84;10245293;28;20336;-78
2022/09/27 13:38:32;;;;;;;1.88;0.88;;;;;;;12.14;64.59;98523.16;10223152;29;20132;-78
2022/09/27 13:44:03;;;;;;;1.02;0.70;;;;;;;12.05;63.88;98519.69;10233576;29;20047;-78
2022/09/27 13:49:23;;;;;;;0.77;0.30;;;;;;;9.84;71.96;98544.34;10230893;29;20131;-78
2022/09/27 13:54:55;;;;;;;0.40;0.30;;;;;;;8.65;79.04;98525.59;10210491;29;20062;-79
2022/09/27 14:00:07;;;;;;;0.68;0.45;;;;;;;8.50;84.80;98536.03;10243410;29;20142;-79
2022/09/27 14:05:31;;;;;;;2.75;0.80;;;;;;;8.39;87.05;98528.19;10245370;29;20055;-79
2022/09/27 14:10:36;;;;;;;1.10;0.65;;;;;;;8.76;86.16;98522.66;10247942;29;20110;-79
2022/09/27 14:15:39;;;;;;;1.38;1.08;;;;;;;9.50;82.71;98533.72;10238515;28;20052;-80
2022/09/27 14:20:44;;;;;;;2.63;0.88;;;;;;;11.87;72.71;98529.91;10235482;29;20425;-79
2022/09/27 14:26:23;;;;;;;3.45;1.30;;;;;;;11.40;73.59;98537.03;10229996;29;20715;-80
2022/09/27 14:31:26;;;;;;;3.05;0.77;;;;;;;10.94;74.12;98542.22;10235599;28;20509;-79
2022/09/27 14:42:35;;;;;;;2.08;0.82;;;;;;;11.75;72.12;98540.22;10228949;29;20051;-79
2022/09/27 14:47:45;;;;;;;1.33;0.82;;;;;;;11.95;70.46;98543.31;10256605;28;20040;-79
2022/09/27 14:52:48;;;;;;;1.83;0.45;;;;;;;12.50;71.24;98538.72;10252064;28;20058;-80
2022/09/27 14:57:54;;;;;;;0.65;0.35;;;;;;;11.98;71.64;98544.81;10243303;29;20127;-80
2022/09/27 15:03:01;;;;;;;1.45;0.17;;;;;;;11.41;72.41;98559.38;10267082;28;20071;-79
2022/09/27 15:08:07;;;;;;;1.60;0.50;;;;;;;8.91;86.01;98575.59;10258889;29;20043;-78
2022/09/27 15:13:15;;;;;;;1.08;0.70;;;;;;;7.93;93.35;98580.97;10236243;28;20075;-77
2022/09/27 15:18:40;;;;;;;2.65;1.05;;;;;;;7.94;92.88;98586.16;10234447;29;20055;-76
2022/09/27 15:23:45;;;;;;;3.15;1.38;;;;;;;7.99;91.69;98574.16;10236613;28;20464;-77
2022/09/27 15:28:51;;;;;;;2.67;1.70;;;;;;;8.45;92.41;98573.09;10273291;29;20476;-76
2022/09/27 15:33:56;;;;;;;2.00;1.10;;;;;;;8.40;90.61;98586.91;10250284;29;20099;-75
2022/09/27 15:39:09;;;;;;;1.25;0.88;;;;;;;8.26;88.58;98586.63;10234872;29;20039;-76
2022/09/27 15:44:36;;;;;;;0.90;0.68;;;;;;;8.34;87.96;98586.72;10228523;29;20047;-76
2022/09/27 15:49:39;;;;;;;2.13;1.00;;;;;;;8.60;87.80;98584.94;10271091;28;20493;-77
2022/09/27 15:54:42;;;;;;;3.05;1.50;;;;;;;8.75;86.58;98590.59;10248276;28;20150;-75
2022/09/27 15:59:46;;;;;;;1.42;1.20;;;;;;;8.52;86.54;98595.56;10251368;28;20074;-75
2022/09/27 16:04:49;;;;;;;2.45;1.48;;;;;;;8.60;86.70;98601.00;10237543;28;20058;-75
2022/09/27 16:09:54;;;;;;;2.72;1.77;;;;;;;8.78;86.82;98594.78;10224743;29;20044;-76
2022/09/27 16:14:58;;;;;;;3.30;2.10;;;;;;;8.40;85.35;98594.13;10252257;28;20043;-76
2022/09/27 16:20:01;;;;;;;3.13;2.00;;;;;;;8.86;85.47;98593.97;10225526;29;20059;-76
2022/09/27 16:25:05;;;;;;;2.10;1.80;;;;;;;8.58;84.84;98599.47;10227687;29;20138;-76
2022/09/27 16:30:12;;;;;;;3.13;2.20;;;;;;;8.61;84.93;98596.47;10219625;29;20050;-77
2022/09/27 16:35:17;;;;;;;3.83;1.95;;;;;;;8.33;84.68;98609.09;10217909;29;20047;-77
2022/09/27 16:40:21;;;;;;;3.17;2.10;;;;;;;8.65;84.67;98603.22;10220134;29;20094;-76
2022/09/27 16:45:32;;;;;;;5.50;2.25;;;;;;;8.78;83.39;98597.47;10212689;28;20524;-76
2022/09/27 16:55:59;;;;;;;6.93;2.17;;;;;;;8.82;83.07;98609.53;10207264;28;20063;-76
2022/09/27 17:01:03;;;;;;;2.42;2.22;;;;;;;8.71;83.25;98602.59;10178552;29;20079;-76
2022/09/27 17:06:06;;;;;;;3.47;1.85;;;;;;;8.77;82.99;98596.59;10179390;29;20040;-76
2022/09/27 17:11:13;;;;;;;4.30;3.17;;;;;;;8.78;82.75;98592.09;10184247;28;21162;-77
2022/09/27 17:16:18;;;;;;;4.38;2.35;;;;;;;8.86;83.17;98602.88;10204500;28;20059;-77
2022/09/27 17:21:23;;;;;;;2.95;2.17;;;;;;;8.68;82.63;98594.88;10206345;28;20054;-77
2022/09/27 17:26:29;;;;;;;6.13;2.65;;;;;;;8.88;82.39;98595.50;10197180;28;20063;-77
2022/09/27 17:31:34;;;;;;;4.53;2.58;;;;;;;8.71;82.42;98591.03;10214247;28;20500;-77
2022/09/27 17:36:40;;;;;;;2.97;2.40;;;;;;;8.75;82.15;98589.72;10213257;28;20421;-77
2022/09/27 17:41:43;;;;;;;3.25;2.30;;;;;;;8.67;82.36;98598.56;10213905;28;20201;-77
2022/09/27 17:50:23;;;;;;;3.95;2.50;;;;;;;8.50;82.33;98608.28;10192528;28;20045;-77
2022/09/27 17:52:11;;;;;;;3.55;1.98;;;;;;;8.53;81.05;98607.09;10182221;28;20466;-77
2022/09/27 17:57:14;;;;;;;4.20;2.33;;;;;;;8.48;81.20;98610.28;10193774;28;20051;-78
2022/09/27 18:02:19;;;;;;;2.50;1.90;;;;;;;8.51;81.08;98601.94;10199360;28;20047;-77
2022/09/27 18:07:22;;;;;;;5.00;2.13;;;;;;;8.63;80.89;98607.88;10195367;28;20062;-77
2022/09/27 18:12:30;;;;;;;5.25;2.63;;;;;;;8.49;80.50;98603.91;10193646;28;20063;-77
2022/09/27 18:17:36;;;;;;;5.25;2.92;;;;;;;8.50;80.64;98612.78;10201561;28;20417;-78
2022/09/27 18:22:39;;;;;;;4.45;2.33;;;;;;;8.37;81.01;98605.97;10202453;28;20050;-78
2022/09/27 18:27:43;;;;;;;2.65;2.38;;;;;;;8.51;80.41;98601.94;10216108;28;20083;-78
2022/09/27 18:32:49;;;;;;;2.67;2.20;;;;;;;8.38;80.25;98604.94;10211528;28;20053;-77
2022/09/27 18:37:53;;;;;;;3.25;2.58;;;;;;;8.43;79.89;98599.16;10219000;28;20146;-78
2022/09/27 18:42:55;;;;;;;2.38;2.15;;;;;;;8.24;79.96;98602.00;10209004;28;20055;-78
2022/09/27 18:48:00;;;;;;;2.25;1.90;;;;;;;8.22;79.35;98602.13;10200553;28;20057;-78
2022/09/27 18:53:03;;;;;;;5.47;2.40;;;;;;;8.08;79.48;98611.53;10216038;28;20089;-78
2022/09/27 18:58:06;;;;;;;7.72;2.33;;;;;;;8.13;79.30;98598.53;10209838;28;20055;-77
2022/09/27 19:03:14;;;;;;;3.88;2.40;;;;;;;8.00;79.43;98600.75;10197982;28;20679;-77
2022/09/27 19:08:17;;;;;;;5.43;2.70;;;;;;;8.10;79.03;98596.16;10201966;28;20657;-78
2022/09/27 19:13:20;;;;;;;4.03;2.42;;;;;;;8.04;79.15;98607.47;10202550;28;20429;-77
2022/09/27 19:18:31;;;;;;;3.20;2.80;;;;;;;8.10;79.31;98598.84;10208160;28;20655;-78
2022/09/27 19:23:34;;;;;;;4.28;3.08;;;;;;;8.00;79.64;98600.75;10207910;28;20059;-77
2022/09/27 19:28:39;;;;;;;4.70;3.05;;;;;;;7.96;79.72;98604.72;10201541;28;20091;-77
2022/09/27 19:33:44;;;;;;;7.57;3.38;;;;;;;8.02;79.43;98598.75;10205245;28;20060;-77
2022/09/27 19:38:49;;;;;;;4.13;2.70;;;;;;;8.00;79.37;98602.56;10194155;28;20058;-77
2022/09/27 19:43:52;;;;;;;3.08;2.63;;;;;;;7.94;78.65;98612.03;10223051;28;20052;-78
2022/09/27 19:48:56;;;;;;;3.67;2.42;;;;;;;8.09;78.58;98605.19;10239059;29;20150;-77
2022/09/27 19:53:59;;;;;;;4.50;2.38;;;;;;;7.99;78.65;98615.13;10250334;29;20116;-78
2022/09/27 19:59:02;;;;;;;3.15;2.80;;;;;;;7.98;78.41;98610.75;10238369;29;20094;-78
2022/09/27 20:04:12;;;;;;;2.92;2.58;;;;;;;8.08;78.19;98610.69;10260502;28;20047;-78
2022/09/27 20:09:15;;;;;;;3.63;2.10;;;;;;;8.02;78.37;98612.13;10246870;29;20449;-78
2022/09/27 20:14:18;;;;;;;9.63;2.97;;;;;;;8.06;78.00;98610.00;10242550;28;20121;-79
2022/09/27 20:19:22;;;;;;;3.60;2.40;;;;;;;8.09;78.24;98594.50;10250411;29;20039;-78
2022/09/27 20:24:25;;;;;;;3.92;2.50;;;;;;;8.10;78.40;98596.16;10236820;28;20051;-78
2022/09/27 20:29:29;;;;;;;4.78;2.85;;;;;;;8.07;78.78;98603.66;10246027;29;20055;-78
2022/09/27 20:34:33;;;;;;;8.38;3.38;;;;;;;7.82;78.81;98598.06;10245294;28;20424;-78
2022/09/27 20:39:36;;;;;;;4.95;3.88;;;;;;;7.81;79.26;98599.03;10243106;28;20204;-78
2022/09/27 20:44:39;;;;;;;;;;;;;;;7.71;79.94;98599.09;10212102;28;1064713;-78
2022/09/27 20:49:43;;;;;;;12.48;5.85;;;;;;;7.79;79.57;98586.81;10238332;29;20339;-76
2022/09/27 20:54:45;;;;;;;7.63;5.25;;;;;;;7.84;79.57;98577.34;10244354;29;20035;-77
2022/09/27 20:59:48;;;;;;;8.23;5.68;;;;;;;7.79;79.67;98584.13;10251015;29;20091;-76
2022/09/27 21:04:52;;;;;;;;;;;;;;;7.82;80.03;98578.50;10224061;29;20056;-76
2022/09/27 21:09:55;;;;;;;13.35;6.68;;;;;;;7.72;79.80;98576.72;10236841;29;20350;-76
2022/09/27 21:14:58;;;;;;;7.20;6.05;;;;;;;7.67;80.10;98581.66;10235332;29;20126;-76
2022/09/27 21:20:03;;;;;;;11.20;6.97;;;;;;;7.53;80.63;98587.53;10242059;29;20134;-77
2022/09/27 21:25:06;;;;;;;11.82;6.90;;;;;;;7.48;80.49;98582.63;10236572;28;20568;-77
2022/09/27 21:30:10;;;;;;;8.82;7.22;;;;;;;7.38;81.09;98578.34;10233589;29;20421;-77
2022/09/27 21:35:14;;;;;;;9.68;6.97;;;;;;;7.37;81.04;98580.13;10235339;28;20453;-77
2022/09/27 21:40:17;;;;;;;10.90;7.68;;;;;;;7.47;80.66;98572.09;10236635;29;20135;-77
2022/09/27 21:45:20;;;;;;;12.75;7.57;;;;;;;7.46;80.61;98573.06;10254485;28;20073;-76
2022/09/27 21:50:24;;;;;;;15.00;8.15;;;;;;;7.48;80.69;98571.94;10267011;29;20043;-77
2022/09/27 21:55:27;;;;;;;8.73;7.45;;;;;;;7.58;80.95;98563.03;10252218;28;20114;-77
2022/09/27 22:00:30;;;;;;;11.95;7.38;;;;;;;7.63;80.92;98564.28;10241616;29;20040;-77
2022/09/27 22:05:34;;;;;;;11.80;8.05;;;;;;;7.68;81.49;98561.16;10232311;28;20051;-76
2022/09/27 22:10:37;;;;;;;10.68;7.60;;;;;;;7.72;81.46;98559.84;10236131;29;20461;-77
2022/09/27 22:15:40;;;;;;;12.75;7.40;;;;;;;7.66;81.51;98553.28;10232310;28;20513;-77
2022/09/27 22:20:44;;;;;;;10.07;7.30;;;;;;;7.69;81.72;98555.66;10237458;29;20135;-77
2022/09/27 22:25:47;;;;;;;9.38;7.03;;;;;;;7.73;81.77;98559.72;10223226;29;20075;-77
2022/09/27 22:30:50;;;;;;;8.93;6.82;;;;;;;7.78;81.75;98548.56;10219605;29;20043;-77
2022/09/27 22:35:54;;;;;;;10.40;6.65;;;;;;;7.85;82.20;98554.16;10233660;28;20055;-77
2022/09/27 22:41:00;;;;;;;14.73;7.93;;;;;;;7.78;82.42;98545.03;10264355;29;20071;-76
2022/09/27 22:46:03;;;;;;;12.23;7.13;;;;;;;7.69;82.18;98541.44;10288430;28;20092;-76
2022/09/27 22:51:08;;;;;;;8.90;7.15;;;;;;;7.55;82.23;98537.47;10242444;29;20114;-76
2022/09/27 22:56:14;;;;;;;11.73;7.00;;;;;;;7.52;82.08;98535.09;10229554;28;20047;-76
2022/09/27 23:01:19;;;;;;;13.30;6.97;;;;;;;7.47;82.67;98522.19;10236087;29;20043;-77
2022/09/27 23:06:23;;;;;;;12.32;7.45;;;;;;;7.41;82.92;98521.94;10231622;28;20048;-76
2022/09/27 23:11:26;;;;;;;8.63;6.90;;;;;;;7.30;83.59;98506.97;10236432;29;20095;-77
2022/09/27 23:16:29;;;;;;;8.70;7.28;;;;;;;7.36;83.86;98500.19;10237281;29;20074;-77
2022/09/27 23:21:33;;;;;;;11.45;7.60;;;;;;;7.35;84.31;98509.16;10231339;28;20044;-78
2022/09/27 23:26:36;;;;;;;12.75;8.38;;;;;;;7.28;84.80;98500.91;10233919;29;20122;-78
2022/09/27 23:31:38;;;;;;;;;;;;;;;7.24;85.13;98494.19;10232884;28;20113;-77
2022/09/27 23:36:43;;;;;;;10.43;7.57;;;;;;;7.20;85.51;98498.16;10234351;29;19922;-78
2022/09/27 23:41:47;;;;;;;10.77;8.30;;;;;;;7.14;85.86;98488.91;10232130;29;20921;-78
2022/09/27 23:46:50;;;;;;;14.13;8.88;;;;;;;7.08;86.42;98491.34;10244158;29;20048;-77
2022/09/27 23:51:55;;;;;;;13.38;9.35;;;;;;;7.09;86.38;98485.00;10219261;29;20051;-77
2022/09/27 23:56:58;;;;;;;14.45;9.18;;;;;;;7.07;86.66;98490.47;10257345;28;20394;-76
